Time;durP1;ratioP1;P1;durP2;ratioP2;P2;SDS_P1;SDS_P2;PMS_P1;PMS_P2;Temp;Humidity;BMP_temperature;BMP_pressure;BME280_temperature;BME280_humidity;BME280_pressure;Samples;Min_cycle;Max_cycle;Signal;HPM_P1;HPM_P2
2022/03/13 01:27:53;;;;;;;9.10;7.30;;;2.00;43.00;;;;;;5098986;28;20635;-54
2022/03/13 01:30:20;;;;;;;10.07;7.28;;;2.00;43.20;;;;;;5098977;28;20200;-54
2022/03/13 01:32:53;;;;;;;10.52;7.70;;;2.00;43.30;;;;;;5098746;28;20225;-53
2022/03/13 01:35:21;;;;;;;10.48;7.97;;;1.90;43.30;;;;;;5096826;28;20208;-53
2022/03/13 01:37:49;;;;;;;10.45;7.35;;;1.90;43.40;;;;;;5096357;28;20208;-53
2022/03/13 01:40:20;;;;;;;11.55;8.05;;;1.90;43.40;;;;;;5097634;28;20211;-53
2022/03/13 01:42:48;;;;;;;9.95;8.30;;;1.90;43.50;;;;;;5096436;28;20216;-53
2022/03/13 01:45:19;;;;;;;13.40;7.10;;;1.80;43.50;;;;;;5098350;28;20222;-53
2022/03/13 01:47:48;;;;;;;11.85;7.70;;;1.80;43.70;;;;;;5100040;28;20234;-53
2022/03/13 01:50:16;;;;;;;10.63;8.40;;;1.70;43.80;;;;;;5099529;28;20208;-53
2022/03/13 01:52:47;;;;;;;10.30;8.05;;;1.70;43.90;;;;;;5100431;28;20231;-53
2022/03/13 01:55:16;;;;;;;10.02;7.97;;;1.60;44.10;;;;;;5099663;28;20208;-53
2022/03/13 01:57:45;;;;;;;13.10;9.40;;;1.50;44.30;;;;;;5099158;28;20206;-53
2022/03/13 02:00:14;;;;;;;10.25;7.95;;;1.50;44.50;;;;;;5099207;28;20576;-53
2022/03/13 02:02:45;;;;;;;9.38;7.57;;;1.40;44.60;;;;;;5096181;28;20622;-54
2022/03/13 02:05:26;;;;;;;8.98;7.20;;;1.40;44.70;;;;;;5095535;28;20556;-53
2022/03/13 02:07:53;;;;;;;12.88;9.20;;;1.30;44.80;;;;;;5095322;28;20659;-53
2022/03/13 02:10:20;;;;;;;10.18;8.13;;;1.30;45.00;;;;;;5095190;28;20676;-54
2022/03/13 02:12:48;;;;;;;11.73;8.23;;;1.30;45.10;;;;;;5095194;28;20594;-53
2022/03/13 02:15:15;;;;;;;14.43;7.88;;;1.30;45.10;;;;;;5095450;28;20230;-54
2022/03/13 02:17:44;;;;;;;11.98;7.97;;;1.30;45.20;;;;;;5095416;28;20203;-52
2022/03/13 02:20:15;;;;;;;9.35;7.32;;;1.20;45.20;;;;;;5095491;28;20584;-53
2022/03/13 02:22:47;;;;;;;12.15;8.18;;;1.20;45.30;;;;;;5095711;28;20232;-53
2022/03/13 02:25:21;;;;;;;18.92;9.20;;;1.20;45.50;;;;;;5096704;28;20211;-54
2022/03/13 02:27:49;;;;;;;12.75;8.40;;;1.10;45.50;;;;;;5096226;28;20195;-53
2022/03/13 02:30:16;;;;;;;10.07;8.20;;;1.10;45.60;;;;;;5096119;28;20204;-54
2022/03/13 02:32:43;;;;;;;9.70;8.00;;;1.10;45.80;;;;;;5095958;28;20224;-54
2022/03/13 02:35:12;;;;;;;10.85;7.90;;;1.00;45.80;;;;;;5095259;28;20243;-54
2022/03/13 02:51:08;;;;;;;9.52;8.00;;;0.80;46.50;;;;;;5095086;28;20164;-54
2022/03/13 02:53:35;;;;;;;11.02;7.82;;;0.80;46.60;;;;;;5094500;28;20224;-52
2022/03/13 02:56:02;;;;;;;11.23;9.00;;;0.80;46.70;;;;;;5094429;28;20231;-53
2022/03/13 02:58:29;;;;;;;11.10;9.00;;;0.80;46.80;;;;;;5094657;28;20207;-53
2022/03/13 03:00:57;;;;;;;12.07;8.38;;;0.80;46.80;;;;;;5094616;28;20204;-54
2022/03/13 03:03:24;;;;;;;14.00;8.77;;;0.70;46.90;;;;;;5107453;28;20226;-52
2022/03/13 03:05:52;;;;;;;14.07;8.93;;;0.70;47.10;;;;;;5107033;28;20257;-53
2022/03/13 03:08:21;;;;;;;14.18;8.95;;;0.70;47.20;;;;;;5106194;28;20236;-53
2022/03/13 03:10:49;;;;;;;13.80;9.20;;;0.70;47.40;;;;;;5105749;28;20205;-54
2022/03/13 03:13:17;;;;;;;18.05;9.10;;;0.60;47.40;;;;;;5095848;28;20224;-54
2022/03/13 03:15:45;;;;;;;13.20;9.32;;;0.60;47.50;;;;;;5094740;28;20230;-53
2022/03/13 03:18:12;;;;;;;13.65;8.93;;;0.60;47.60;;;;;;5095226;28;20210;-52
2022/03/13 03:20:39;;;;;;;12.93;9.43;;;0.60;47.70;;;;;;5094698;28;20200;-53
2022/03/13 03:23:07;;;;;;;20.98;11.15;;;0.60;47.80;;;;;;5094229;28;20358;-53
2022/03/13 03:25:35;;;;;;;14.48;9.90;;;0.50;47.80;;;;;;5094497;28;20196;-53
2022/03/13 03:28:02;;;;;;;12.88;9.75;;;0.50;47.90;;;;;;5094723;28;20208;-53
2022/03/13 03:30:31;;;;;;;15.23;9.63;;;0.50;47.90;;;;;;5102578;28;20268;-53
2022/03/13 03:33:02;;;;;;;17.25;10.32;;;0.50;48.10;;;;;;5103946;28;20257;-54
2022/03/13 03:35:29;;;;;;;17.85;8.95;;;0.40;48.20;;;;;;5102975;28;20232;-53
2022/03/13 03:37:58;;;;;;;17.48;9.23;;;0.30;48.30;;;;;;5099365;28;20204;-54
2022/03/13 03:40:26;;;;;;;16.92;10.15;;;0.30;48.60;;;;;;5098912;28;20660;-54
2022/03/13 03:42:57;;;;;;;12.27;9.73;;;0.30;48.90;;;;;;5098613;28;20228;-54
2022/03/13 03:45:25;;;;;;;10.80;8.85;;;0.20;48.90;;;;;;5098969;28;20189;-53
2022/03/13 03:47:52;;;;;;;17.15;10.55;;;0.20;49.10;;;;;;5098618;28;20287;-54
2022/03/13 03:50:20;;;;;;;12.77;9.50;;;0.20;49.20;;;;;;5097738;28;20584;-54
2022/03/13 03:52:47;;;;;;;12.63;9.52;;;0.10;49.30;;;;;;5096288;28;20228;-54
2022/03/13 03:55:15;;;;;;;15.40;10.27;;;0.10;49.40;;;;;;5097341;28;20600;-53
2022/03/13 03:57:43;;;;;;;14.52;9.38;;;0.10;49.60;;;;;;5096722;28;20211;-54
2022/03/13 04:00:12;;;;;;;13.98;8.65;;;0.10;49.90;;;;;;5096259;28;20211;-54
2022/03/13 04:02:40;;;;;;;12.50;9.57;;;0.10;50.00;;;;;;5095251;28;20597;-54
2022/03/13 04:05:07;;;;;;;13.50;9.30;;;0.10;50.00;;;;;;5095118;28;20211;-53
2022/03/13 04:09:28;;;;;;;14.65;10.30;;;0.00;49.60;;;;;;5115528;27;20548;-53
2022/03/13 04:11:56;;;;;;;14.95;10.05;;;0.00;50.00;;;;;;5114508;28;20599;-54
2022/03/13 04:14:23;;;;;;;12.18;8.90;;;0.00;50.00;;;;;;5112776;28;20223;-53
2022/03/13 04:16:53;;;;;;;16.17;11.30;;;0.00;50.00;;;;;;5116002;28;20203;-55
2022/03/13 04:19:21;;;;;;;10.63;9.10;;;0.00;50.20;;;;;;5115451;28;20564;-53
2022/03/13 04:21:48;;;;;;;12.20;9.05;;;0.00;50.30;;;;;;5085188;22;20268;-57
2022/03/13 04:24:15;;;;;;;16.10;8.80;;;0.00;50.40;;;;;;5051349;28;20209;-58
2022/03/13 04:26:44;;;;;;;15.68;9.45;;;0.00;50.50;;;;;;5051718;28;20206;-58
2022/03/13 04:29:12;;;;;;;15.43;10.07;;;0.00;50.60;;;;;;5052590;28;20225;-57
2022/03/13 04:31:40;;;;;;;12.85;9.90;;;0.00;50.70;;;;;;5058998;28;20276;-57
2022/03/13 04:34:08;;;;;;;16.27;9.55;;;-0.10;50.80;;;;;;5055517;28;20202;-57
2022/03/13 04:36:37;;;;;;;15.32;9.60;;;-0.10;51.00;;;;;;5052570;28;20213;-57
2022/03/13 04:39:05;;;;;;;13.85;9.52;;;-0.10;51.20;;;;;;5051377;28;20614;-57
2022/03/13 04:41:33;;;;;;;16.40;9.70;;;-0.20;51.30;;;;;;5050956;28;20230;-58
2022/03/13 04:44:02;;;;;;;13.55;8.88;;;-0.20;51.30;;;;;;5050356;28;20241;-58
2022/03/13 04:46:29;;;;;;;13.65;9.88;;;-0.20;51.30;;;;;;5050527;28;20213;-58
2022/03/13 04:48:57;;;;;;;18.00;10.55;;;-0.20;51.30;;;;;;5051106;28;20214;-58
2022/03/13 04:51:24;;;;;;;15.93;10.55;;;-0.10;51.30;;;;;;5050491;28;20230;-58
2022/03/13 04:53:51;;;;;;;11.68;9.00;;;-0.20;51.20;;;;;;5050115;28;20682;-58
2022/03/13 04:56:18;;;;;;;13.98;9.32;;;-0.10;51.20;;;;;;5050351;28;20284;-57
2022/03/13 04:58:45;;;;;;;14.18;10.00;;;-0.10;51.20;;;;;;5051574;28;20216;-58
2022/03/13 05:01:14;;;;;;;16.58;9.98;;;-0.20;51.20;;;;;;5053243;28;20706;-56
2022/03/13 05:03:41;;;;;;;13.32;9.07;;;-0.10;51.20;;;;;;5054516;28;20216;-57
2022/03/13 05:06:08;;;;;;;16.17;10.13;;;-0.10;51.20;;;;;;5055958;28;20208;-57
2022/03/13 05:08:36;;;;;;;15.13;10.23;;;-0.10;51.10;;;;;;5055863;28;20218;-58
2022/03/13 05:11:05;;;;;;;12.93;9.65;;;-0.10;51.10;;;;;;5055968;28;20245;-57
2022/03/13 05:13:32;;;;;;;12.18;9.32;;;-0.10;51.00;;;;;;5057158;28;20292;-57
2022/03/13 05:15:59;;;;;;;16.98;9.68;;;-0.10;51.00;;;;;;5057870;28;20206;-58
2022/03/13 05:18:29;;;;;;;18.33;10.25;;;-0.10;51.00;;;;;;5058416;28;20194;-57
2022/03/13 05:20:56;;;;;;;10.73;9.20;;;-0.10;51.00;;;;;;5044611;28;20238;-57
2022/03/13 05:23:24;;;;;;;12.00;9.45;;;-0.20;51.00;;;;;;5044499;28;20213;-57
2022/03/13 05:25:51;;;;;;;14.35;9.73;;;-0.20;51.00;;;;;;5045992;28;20213;-57
2022/03/13 05:28:18;;;;;;;15.68;10.05;;;-0.20;51.10;;;;;;5046187;28;20226;-57
2022/03/13 05:30:46;;;;;;;9.93;8.57;;;-0.20;51.10;;;;;;5045946;28;20227;-56
2022/03/13 05:33:14;;;;;;;14.38;9.75;;;-0.20;51.10;;;;;;5046226;28;20206;-56
2022/03/13 05:35:42;;;;;;;13.50;8.75;;;-0.20;51.20;;;;;;5045331;28;20206;-56
2022/03/13 05:38:09;;;;;;;9.93;8.55;;;-0.20;51.20;;;;;;5042062;28;20221;-57
2022/03/13 05:40:36;;;;;;;12.27;9.73;;;-0.30;51.10;;;;;;5041551;28;20222;-57
2022/03/13 05:43:04;;;;;;;16.10;9.23;;;-0.30;51.20;;;;;;5042367;28;20198;-57
2022/03/13 05:45:32;;;;;;;14.48;9.85;;;-0.30;51.80;;;;;;5043189;28;20293;-58
2022/03/13 05:48:01;;;;;;;10.77;9.35;;;-0.30;51.30;;;;;;5043264;28;20225;-57
2022/03/13 05:50:29;;;;;;;18.52;9.30;;;-0.30;51.40;;;;;;5044081;28;20230;-58
2022/03/13 05:52:59;;;;;;;15.63;10.05;;;-0.30;51.50;;;;;;5043757;28;20210;-57
2022/03/13 05:55:27;;;;;;;11.45;8.75;;;-0.30;51.50;;;;;;5040472;28;20210;-57
2022/03/13 05:57:54;;;;;;;15.52;10.02;;;-0.30;51.50;;;;;;5038608;28;20198;-58
2022/03/13 06:00:23;;;;;;;14.80;9.50;;;-0.30;51.60;;;;;;5036563;28;20222;-58
2022/03/13 06:02:50;;;;;;;11.85;9.02;;;-0.30;51.50;;;;;;5037078;28;20210;-58
2022/03/13 06:05:18;;;;;;;10.98;8.13;;;-0.30;51.50;;;;;;5041930;28;20202;-58
2022/03/13 06:07:46;;;;;;;11.30;8.02;;;-0.20;51.50;;;;;;5045197;28;20203;-57
2022/03/13 06:10:15;;;;;;;13.20;9.43;;;-0.20;51.40;;;;;;5042437;28;20226;-58
2022/03/13 06:12:42;;;;;;;10.23;8.35;;;-0.10;51.30;;;;;;5042567;28;20206;-57
2022/03/13 06:15:12;;;;;;;14.20;9.32;;;-0.10;51.20;;;;;;5037916;28;20202;-57
2022/03/13 06:17:40;;;;;;;15.73;8.52;;;-0.10;51.00;;;;;;5036057;28;20674;-58
2022/03/13 06:20:10;;;;;;;12.52;8.90;;;-0.10;50.90;;;;;;5036170;28;20198;-57
2022/03/13 06:22:38;;;;;;;10.82;8.35;;;0.00;50.90;;;;;;5039141;28;20187;-58
2022/03/13 06:25:06;;;;;;;10.13;9.02;;;0.10;50.80;;;;;;5038669;28;20202;-58
2022/03/13 06:27:35;;;;;;;12.02;9.18;;;0.10;50.60;;;;;;5039876;28;20206;-59
2022/03/13 06:30:10;;;;;;;11.52;8.77;;;0.20;50.40;;;;;;5038769;28;20226;-58
2022/03/13 06:32:37;;;;;;;12.52;9.27;;;0.20;50.20;;;;;;5034810;28;20198;-58
2022/03/13 06:35:05;;;;;;;10.95;8.60;;;0.30;50.10;;;;;;5035399;28;20301;-58
2022/03/13 06:37:32;;;;;;;13.57;9.30;;;0.40;50.50;;;;;;5035118;28;20202;-58
2022/03/13 06:39:59;;;;;;;11.05;8.60;;;0.50;49.80;;;;;;5035194;28;20625;-59
2022/03/13 06:42:27;;;;;;;13.85;9.10;;;0.50;49.50;;;;;;5035494;28;20606;-58
2022/03/13 06:44:56;;;;;;;10.20;8.68;;;0.60;49.40;;;;;;5035358;28;20202;-58
2022/03/13 06:47:23;;;;;;;11.70;9.50;;;0.60;49.20;;;;;;5035546;28;20199;-58
2022/03/13 06:49:50;;;;;;;14.45;8.63;;;0.70;49.10;;;;;;5034792;28;20226;-58
2022/03/13 06:52:17;;;;;;;13.80;9.38;;;0.80;49.00;;;;;;5035410;28;20581;-58
2022/03/13 06:54:45;;;;;;;12.57;9.40;;;0.80;48.80;;;;;;5035394;28;20207;-58
2022/03/13 06:57:15;;;;;;;17.63;10.23;;;0.90;48.70;;;;;;5034839;28;20210;-57
2022/03/13 06:59:43;;;;;;;9.80;8.70;;;1.00;48.70;;;;;;5034701;28;20234;-58
2022/03/13 07:02:13;;;;;;;14.65;9.88;;;1.10;48.60;;;;;;5035118;28;20641;-58
2022/03/13 07:04:40;;;;;;;13.00;8.65;;;1.10;48.40;;;;;;5034689;28;20262;-58
2022/03/13 07:07:07;;;;;;;14.13;10.80;;;1.20;48.30;;;;;;5034531;28;20333;-59
2022/03/13 07:09:34;;;;;;;16.15;9.10;;;1.30;48.10;;;;;;5034579;28;20225;-58
2022/03/13 07:12:02;;;;;;;13.05;9.25;;;1.40;48.00;;;;;;5036721;28;20229;-57
2022/03/13 07:14:31;;;;;;;14.57;9.00;;;1.50;47.80;;;;;;5036396;28;20206;-59
2022/03/13 07:16:58;;;;;;;13.63;9.32;;;1.60;47.70;;;;;;5034756;28;20248;-58
2022/03/13 07:19:26;;;;;;;13.50;8.55;;;1.70;47.50;;;;;;5035273;28;20198;-58
2022/03/13 07:21:53;;;;;;;15.27;9.65;;;1.80;47.40;;;;;;5034529;28;20234;-59
2022/03/13 07:24:20;;;;;;;14.65;10.30;;;1.90;47.20;;;;;;5035412;28;20198;-56
2022/03/13 07:26:47;;;;;;;12.73;10.20;;;2.00;47.10;;;;;;5035634;28;20217;-59
2022/03/13 07:29:15;;;;;;;12.38;9.70;;;2.10;46.90;;;;;;5044509;28;20226;-58
2022/03/13 07:31:42;;;;;;;20.58;10.50;;;2.20;46.70;;;;;;5046699;28;20228;-59
2022/03/13 07:34:09;;;;;;;10.32;9.05;;;2.20;46.40;;;;;;5045520;28;20202;-59
2022/03/13 07:36:37;;;;;;;12.13;9.55;;;2.30;46.40;;;;;;5048242;28;20218;-58
2022/03/13 07:39:04;;;;;;;13.05;9.25;;;2.40;46.30;;;;;;5047202;28;20543;-58
2022/03/13 07:41:31;;;;;;;9.90;8.90;;;2.50;46.10;;;;;;5042525;28;20221;-57
2022/03/13 07:43:58;;;;;;;11.23;10.10;;;2.60;45.90;;;;;;5040346;28;20198;-59
2022/03/13 07:46:26;;;;;;;13.98;9.48;;;2.70;45.80;;;;;;5039389;28;20206;-58
2022/03/13 07:48:53;;;;;;;14.20;9.23;;;2.80;45.50;;;;;;5037977;28;20269;-58
2022/03/13 07:51:20;;;;;;;12.35;9.13;;;3.00;45.90;;;;;;5036914;28;20229;-59
2022/03/13 07:53:48;;;;;;;15.57;9.60;;;3.10;45.10;;;;;;5037303;28;20203;-59
2022/03/13 07:56:15;;;;;;;14.40;9.70;;;3.20;44.90;;;;;;5038427;28;20198;-58
2022/03/13 07:58:42;;;;;;;10.07;8.55;;;3.30;44.70;;;;;;5034644;28;20209;-58
2022/03/13 08:01:09;;;;;;;15.00;9.52;;;3.50;44.60;;;;;;5034624;28;20313;-59
2022/03/13 08:03:37;;;;;;;14.05;9.57;;;3.70;44.50;;;;;;5034418;28;20198;-58
2022/03/13 08:06:04;;;;;;;15.15;10.18;;;3.80;44.20;;;;;;5033936;28;20228;-60
2022/03/13 08:08:32;;;;;;;12.77;9.40;;;3.90;44.00;;;;;;5033887;28;20229;-60
2022/03/13 08:11:00;;;;;;;13.18;9.45;;;4.10;43.80;;;;;;5034289;28;20250;-59
2022/03/13 08:13:27;;;;;;;13.32;8.93;;;4.20;43.60;;;;;;5033862;28;20630;-58
2022/03/13 08:15:54;;;;;;;10.43;8.30;;;4.30;43.30;;;;;;5033590;28;20198;-59
2022/03/13 08:18:22;;;;;;;11.00;7.97;;;4.40;43.00;;;;;;5034000;28;20202;-60
2022/03/13 08:20:49;;;;;;;10.55;8.10;;;4.50;42.70;;;;;;5033826;28;20232;-58
2022/03/13 08:23:17;;;;;;;9.25;8.20;;;4.60;42.40;;;;;;5033919;28;20209;-58
2022/03/13 08:25:44;;;;;;;13.02;8.63;;;4.70;42.20;;;;;;5033524;28;20256;-59
2022/03/13 08:28:12;;;;;;;12.40;8.82;;;4.80;42.00;;;;;;5033570;28;20209;-58
2022/03/13 08:30:39;;;;;;;21.17;9.85;;;4.90;41.60;;;;;;5033455;28;20233;-58
2022/03/13 08:33:06;;;;;;;10.27;8.20;;;5.00;41.50;;;;;;5033590;28;20210;-58
2022/03/13 08:35:34;;;;;;;13.05;9.32;;;5.20;42.00;;;;;;5033946;28;20202;-58
2022/03/13 08:38:01;;;;;;;10.85;8.93;;;5.40;41.20;;;;;;5033420;28;20210;-58
2022/03/13 08:40:29;;;;;;;11.65;8.68;;;5.50;40.80;;;;;;5033662;28;20221;-57
2022/03/13 08:42:57;;;;;;;9.30;8.20;;;5.60;40.50;;;;;;5033323;28;20256;-58
2022/03/13 08:45:25;;;;;;;11.88;8.80;;;5.70;40.10;;;;;;5033263;28;20238;-58
2022/03/13 08:47:53;;;;;;;11.13;9.13;;;5.80;39.90;;;;;;5033132;28;20229;-59
2022/03/13 08:50:20;;;;;;;9.65;8.48;;;5.90;39.60;;;;;;5033231;28;20231;-58
2022/03/13 08:52:48;;;;;;;11.70;8.95;;;6.00;39.30;;;;;;5033184;28;20207;-58
2022/03/13 08:55:17;;;;;;;11.50;8.38;;;6.10;39.00;;;;;;5035566;28;20207;-58
2022/03/13 08:57:45;;;;;;;22.20;9.85;;;6.10;38.90;;;;;;5036883;28;20689;-58
2022/03/13 09:00:15;;;;;;;9.35;8.38;;;6.20;38.90;;;;;;5036896;28;20219;-58
2022/03/13 09:02:44;;;;;;;12.15;9.50;;;6.30;38.80;;;;;;5036638;28;20259;-58
2022/03/13 09:05:12;;;;;;;15.10;9.32;;;6.40;38.70;;;;;;5036750;28;20212;-58
2022/03/13 09:07:39;;;;;;;13.38;9.02;;;6.50;38.60;;;;;;5036633;28;20209;-58
2022/03/13 09:10:07;;;;;;;10.30;8.45;;;6.60;38.50;;;;;;5036719;28;20245;-59
2022/03/13 09:12:34;;;;;;;11.20;8.43;;;6.80;38.60;;;;;;5037820;28;20210;-58
2022/03/13 09:15:02;;;;;;;9.68;8.52;;;6.90;38.50;;;;;;5038055;28;20210;-59
2022/03/13 09:17:29;;;;;;;10.55;8.85;;;7.00;38.30;;;;;;5037406;28;20198;-58
2022/03/13 09:19:58;;;;;;;10.25;8.07;;;7.20;38.20;;;;;;5037477;28;20198;-58
2022/03/13 09:22:30;;;;;;;11.43;8.55;;;7.30;37.90;;;;;;5037312;28;20195;-59
2022/03/13 09:24:58;;;;;;;9.15;7.70;;;7.40;37.40;;;;;;5037849;28;20193;-59
2022/03/13 09:27:26;;;;;;;11.00;8.00;;;7.50;37.10;;;;;;5037289;28;20204;-59
2022/03/13 09:29:54;;;;;;;10.90;8.23;;;7.60;37.40;;;;;;5036937;28;20245;-57
2022/03/13 09:32:22;;;;;;;11.30;8.98;;;7.70;36.40;;;;;;5036587;28;20206;-58
2022/03/13 09:34:49;;;;;;;10.65;8.10;;;7.80;35.90;;;;;;5036027;28;20198;-58
2022/03/13 09:37:18;;;;;;;11.90;9.35;;;7.80;35.80;;;;;;5036450;28;20203;-57
2022/03/13 09:39:45;;;;;;;11.40;8.95;;;7.90;35.70;;;;;;5035906;28;20281;-59
2022/03/13 09:42:12;;;;;;;12.60;9.32;;;8.00;35.50;;;;;;5035858;28;20218;-57
2022/03/13 09:44:39;;;;;;;12.25;9.18;;;8.10;35.40;;;;;;5038630;28;20309;-59
2022/03/13 09:47:07;;;;;;;11.90;9.55;;;8.20;35.40;;;;;;5039767;28;20214;-58
2022/03/13 09:49:35;;;;;;;16.02;9.32;;;8.30;35.30;;;;;;5036859;28;20218;-58
2022/03/13 09:52:02;;;;;;;13.65;8.52;;;8.40;35.10;;;;;;5036252;28;20702;-56
2022/03/13 09:54:31;;;;;;;14.13;10.68;;;8.50;34.80;;;;;;5043678;28;20202;-58
2022/03/13 09:56:58;;;;;;;8.85;7.80;;;8.50;34.50;;;;;;5044941;28;20199;-58
2022/03/13 09:59:25;;;;;;;11.88;9.52;;;8.60;34.40;;;;;;5052565;28;20198;-58
2022/03/13 10:01:52;;;;;;;10.95;8.30;;;8.80;34.30;;;;;;5051476;28;20218;-58
2022/03/13 10:04:19;;;;;;;9.07;7.35;;;8.90;34.00;;;;;;5047496;28;20213;-59
2022/03/13 10:07:06;;;;;;;13.50;8.90;;;9.00;33.80;;;;;;5047210;28;20206;-58
2022/03/13 10:09:37;;;;;;;9.25;8.27;;;9.10;33.70;;;;;;5037767;28;20206;-58
2022/03/13 10:12:07;;;;;;;9.80;8.40;;;9.20;33.40;;;;;;5036815;28;20222;-59
2022/03/13 10:14:35;;;;;;;11.40;8.40;;;9.20;33.20;;;;;;5036283;28;20831;-59
2022/03/13 10:17:02;;;;;;;10.97;8.63;;;9.30;33.10;;;;;;5044828;28;20445;-57
2022/03/13 10:19:31;;;;;;;10.20;8.27;;;9.40;33.00;;;;;;5045507;28;20451;-58
2022/03/13 10:22:07;;;;;;;11.37;8.30;;;9.50;33.00;;;;;;5039057;28;20615;-58
2022/03/13 10:24:43;;;;;;;9.93;8.67;;;9.60;32.90;;;;;;5035921;28;20448;-59
2022/03/13 10:27:15;;;;;;;11.10;8.50;;;9.70;32.50;;;;;;5035931;28;20448;-58
2022/03/13 10:29:44;;;;;;;11.17;8.07;;;9.70;32.20;;;;;;5036214;28;20492;-58
2022/03/13 10:32:11;;;;;;;8.80;8.00;;;9.80;32.20;;;;;;5036423;28;20472;-59
2022/03/13 10:34:39;;;;;;;9.60;8.60;;;9.80;31.90;;;;;;5051348;22;20240;-54
2022/03/13 10:37:06;;;;;;;9.27;7.67;;;9.80;32.00;;;;;;5035383;28;20433;-54
2022/03/13 10:39:34;;;;;;;9.50;8.53;;;9.80;31.90;;;;;;5035003;28;20441;-53
2022/03/13 10:42:03;;;;;;;9.20;8.00;;;9.90;32.00;;;;;;5035256;28;20488;-54
2022/03/13 10:44:34;;;;;;;9.70;8.70;;;10.00;31.00;;;;;;5034514;28;20501;-53
2022/03/13 10:47:04;;;;;;;10.73;8.37;;;10.20;30.90;;;;;;5034841;28;20484;-54
2022/03/13 10:49:44;;;;;;;11.97;8.70;;;10.30;30.60;;;;;;5034187;28;20473;-52
2022/03/13 10:52:36;;;;;;;11.17;8.87;;;10.40;30.50;;;;;;5034973;28;20429;-53
2022/03/13 10:55:18;;;;;;;8.87;7.97;;;10.40;30.00;;;;;;5030200;28;20476;-53
2022/03/13 10:57:51;;;;;;;10.70;8.93;;;10.40;30.00;;;;;;5034549;28;20500;-53
2022/03/13 11:00:18;;;;;;;9.80;8.13;;;10.40;29.90;;;;;;5034190;28;20429;-53
2022/03/13 11:02:46;;;;;;;10.13;8.30;;;10.40;29.80;;;;;;5034415;28;20808;-53
2022/03/13 11:05:13;;;;;;;9.33;8.00;;;10.50;29.90;;;;;;5034336;28;20468;-54
2022/03/13 11:07:41;;;;;;;9.50;8.33;;;10.50;29.80;;;;;;5034294;28;20813;-54
2022/03/13 11:10:10;;;;;;;10.50;8.23;;;10.60;29.70;;;;;;5033533;28;21064;-53
2022/03/13 11:12:39;;;;;;;9.33;8.10;;;10.70;29.70;;;;;;5034062;28;20543;-53
2022/03/13 11:15:11;;;;;;;10.67;9.07;;;10.70;29.50;;;;;;5033559;28;20473;-53
2022/03/13 11:17:40;;;;;;;10.90;9.17;;;10.80;29.50;;;;;;5033486;28;20448;-53
2022/03/13 11:20:09;;;;;;;11.13;7.90;;;10.90;29.50;;;;;;5033657;28;20445;-53
2022/03/13 11:22:37;;;;;;;9.53;8.23;;;10.90;29.30;;;;;;5033801;28;20916;-53
2022/03/13 11:25:06;;;;;;;8.83;7.93;;;11.00;29.30;;;;;;5033664;28;20461;-53
2022/03/13 11:27:36;;;;;;;8.50;7.60;;;11.10;29.40;;;;;;5033401;28;20933;-52
2022/03/13 11:30:04;;;;;;;10.30;9.00;;;11.10;29.40;;;;;;5033473;28;20480;-54
2022/03/13 11:32:37;;;;;;;9.60;8.60;;;11.30;29.40;;;;;;5033754;28;20535;-54
2022/03/13 11:35:30;;;;;;;9.50;8.50;;;11.40;29.30;;;;;;5033191;28;20477;-54
2022/03/13 11:38:20;;;;;;;9.27;8.27;;;11.40;29.20;;;;;;5033588;28;21013;-52
2022/03/13 11:40:47;;;;;;;9.20;8.17;;;11.50;29.10;;;;;;5033754;28;20449;-54
2022/03/13 11:43:16;;;;;;;11.33;8.17;;;11.60;29.10;;;;;;5034151;28;20453;-54
2022/03/13 11:45:48;;;;;;;9.03;8.13;;;11.70;29.00;;;;;;5033900;28;20465;-54
2022/03/13 11:48:44;;;;;;;8.40;7.47;;;11.80;28.90;;;;;;5033823;28;20465;-52
2022/03/13 11:51:26;;;;;;;12.20;8.83;;;11.90;28.80;;;;;;5033842;28;21027;-55
2022/03/13 11:53:53;;;;;;;7.77;7.00;;;11.90;28.60;;;;;;5033592;28;20921;-53
2022/03/13 11:56:27;;;;;;;9.90;7.80;;;12.10;28.80;;;;;;5032966;28;20475;-54
2022/03/13 11:59:00;;;;;;;10.60;7.57;;;12.20;28.80;;;;;;5033663;28;20910;-55
2022/03/13 12:01:38;;;;;;;11.00;8.17;;;12.40;28.80;;;;;;5033391;28;20429;-54
2022/03/13 12:04:28;;;;;;;8.27;7.13;;;12.60;28.90;;;;;;5033955;28;20429;-54
2022/03/13 12:06:57;;;;;;;8.97;8.13;;;12.80;28.70;;;;;;5033825;28;20429;-55
2022/03/13 12:09:29;;;;;;;9.57;8.57;;;12.80;28.60;;;;;;5033319;28;20444;-55
2022/03/13 12:12:05;;;;;;;9.20;8.30;;;12.80;28.50;;;;;;5033309;28;20441;-54
2022/03/13 12:14:56;;;;;;;9.47;8.10;;;12.80;28.50;;;;;;5033420;28;20972;-54
2022/03/13 12:17:26;;;;;;;9.40;7.50;;;12.80;28.40;;;;;;5034106;28;20457;-54
2022/03/13 12:19:56;;;;;;;9.93;8.53;;;12.80;28.30;;;;;;5034222;28;20437;-56
2022/03/13 12:22:25;;;;;;;9.07;8.07;;;12.80;28.30;;;;;;5033159;28;20437;-55
2022/03/13 12:24:54;;;;;;;9.23;8.33;;;12.80;28.10;;;;;;5033201;28;20468;-55
2022/03/13 12:27:23;;;;;;;9.47;8.43;;;12.80;28.10;;;;;;5032996;28;20444;-55
2022/03/13 12:29:56;;;;;;;8.70;7.80;;;12.80;28.30;;;;;;5034896;28;20499;-56
2022/03/13 12:32:34;;;;;;;11.97;8.13;;;12.90;28.40;;;;;;5037002;28;20937;-55
2022/03/13 12:35:04;;;;;;;8.70;7.80;;;13.10;28.40;;;;;;5037141;28;20488;-55
2022/03/13 12:37:31;;;;;;;9.20;8.30;;;13.30;28.40;;;;;;5036732;28;20445;-54
2022/03/13 12:40:00;;;;;;;8.13;7.33;;;13.40;28.40;;;;;;5036749;28;20460;-54
2022/03/13 12:42:30;;;;;;;9.43;7.80;;;13.50;28.30;;;;;;5036775;28;20456;-58
2022/03/13 12:45:04;;;;;;;10.20;7.90;;;13.60;28.20;;;;;;5036888;28;20465;-56
2022/03/13 12:47:33;;;;;;;7.80;7.00;;;13.70;28.10;;;;;;5036831;28;20441;-55
2022/03/13 12:50:02;;;;;;;9.47;7.50;;;13.70;28.00;;;;;;5036754;28;20979;-58
2022/03/13 12:52:29;;;;;;;9.27;8.37;;;13.80;28.10;;;;;;5037121;28;20448;-58
2022/03/13 12:55:02;;;;;;;10.60;9.50;;;13.90;28.10;;;;;;5036739;28;20568;-55
2022/03/13 12:57:29;;;;;;;8.67;7.17;;;13.80;27.80;;;;;;5036211;28;20805;-56
2022/03/13 12:59:56;;;;;;;8.67;7.77;;;13.80;27.70;;;;;;5035959;28;20448;-55
2022/03/13 13:02:25;;;;;;;8.53;7.73;;;13.80;27.50;;;;;;5036664;28;20830;-56
2022/03/13 13:04:54;;;;;;;10.17;7.67;;;13.80;27.30;;;;;;5036434;28;20551;-55
2022/03/13 13:07:26;;;;;;;9.60;7.90;;;13.80;27.10;;;;;;5036611;28;20449;-56
2022/03/13 13:09:54;;;;;;;9.07;7.87;;;13.80;26.90;;;;;;5036302;28;20425;-55
2022/03/13 13:12:27;;;;;;;8.57;7.43;;;13.80;26.90;;;;;;5036705;28;20448;-55
2022/03/13 13:14:54;;;;;;;9.70;7.60;;;13.80;27.00;;;;;;5036316;28;20476;-54
2022/03/13 13:17:25;;;;;;;8.90;8.00;;;13.80;26.90;;;;;;5036341;28;20440;-54
2022/03/13 13:19:54;;;;;;;8.70;7.90;;;13.90;27.10;;;;;;5036200;28;20563;-54
2022/03/13 13:22:27;;;;;;;9.70;8.73;;;13.90;27.20;;;;;;5036162;28;20925;-56
2022/03/13 13:24:56;;;;;;;10.37;8.57;;;13.90;27.30;;;;;;5036026;28;20469;-55
2022/03/13 13:27:35;;;;;;;12.13;8.63;;;13.80;27.30;;;;;;5035969;28;20463;-56
2022/03/13 13:30:26;;;;;;;9.27;8.27;;;13.80;27.30;;;;;;5036284;28;20477;-55
2022/03/13 13:32:56;;;;;;;8.90;8.00;;;13.90;27.40;;;;;;5035738;28;20882;-54
2022/03/13 13:35:26;;;;;;;8.77;7.60;;;13.90;27.50;;;;;;5035518;28;20496;-55
2022/03/13 13:38:07;;;;;;;9.87;8.43;;;13.90;27.70;;;;;;5035891;28;20437;-54
2022/03/13 13:40:36;;;;;;;9.63;8.20;;;14.00;27.70;;;;;;5035083;28;20452;-55
2022/03/13 13:43:06;;;;;;;11.10;8.50;;;13.90;27.50;;;;;;5035520;28;20456;-55
2022/03/13 13:45:36;;;;;;;8.60;7.73;;;13.90;27.40;;;;;;5035421;28;20476;-55
2022/03/13 13:48:24;;;;;;;9.13;7.63;;;14.00;27.60;;;;;;5035408;28;20897;-56
2022/03/13 13:51:13;;;;;;;9.13;7.97;;;14.10;27.70;;;;;;5035569;28;20825;-56
2022/03/13 13:53:55;;;;;;;9.97;7.60;;;14.20;27.70;;;;;;5035567;28;20437;-55
2022/03/13 13:56:24;;;;;;;12.83;8.30;;;14.20;27.60;;;;;;5035325;28;20465;-55
2022/03/13 13:58:51;;;;;;;9.10;7.63;;;14.10;27.40;;;;;;5035962;28;20445;-56
2022/03/13 14:01:23;;;;;;;8.60;7.70;;;14.10;27.20;;;;;;5036065;28;20441;-55
2022/03/13 14:03:51;;;;;;;9.33;8.40;;;14.10;27.10;;;;;;5036470;28;20503;-55
2022/03/13 14:06:19;;;;;;;12.13;8.00;;;14.10;27.30;;;;;;5036310;28;20496;-56
2022/03/13 14:08:48;;;;;;;10.87;8.20;;;14.10;27.50;;;;;;5036002;28;20807;-56
2022/03/13 14:11:18;;;;;;;9.13;8.10;;;14.20;27.50;;;;;;5036682;28;20484;-56
2022/03/13 14:13:45;;;;;;;8.87;8.00;;;14.30;27.40;;;;;;5036055;28;20445;-57
2022/03/13 14:16:14;;;;;;;10.77;9.67;;;14.30;27.40;;;;;;5036523;28;20465;-57
2022/03/13 14:18:42;;;;;;;10.10;8.10;;;14.20;27.30;;;;;;5036963;28;20453;-55
2022/03/13 14:21:09;;;;;;;8.50;7.60;;;14.20;27.40;;;;;;5036294;28;20457;-57
2022/03/13 14:23:36;;;;;;;8.80;7.90;;;14.20;27.30;;;;;;5036296;28;20480;-55
2022/03/13 14:26:03;;;;;;;8.30;7.57;;;14.20;27.20;;;;;;5035449;28;20469;-56
2022/03/13 14:28:32;;;;;;;8.10;7.27;;;14.20;27.30;;;;;;5036850;28;20456;-57
2022/03/13 14:30:59;;;;;;;9.67;7.80;;;14.10;27.20;;;;;;5035841;28;20964;-56
2022/03/13 14:33:26;;;;;;;8.17;7.23;;;14.10;27.10;;;;;;5035405;28;20479;-55
2022/03/13 14:35:54;;;;;;;8.93;7.80;;;14.10;27.00;;;;;;5034581;28;20481;-55
2022/03/13 14:38:21;;;;;;;10.03;8.30;;;14.00;26.90;;;;;;5035073;28;20445;-54